Evaro, MT

5:56 AM MST on December 07, 2016 (GMT -0700)
Coal Mine Road | | Change Station
Active Advisory: Winter Storm Watch

Elev 3523 ft 46.91 °N, 114.01 °W | Updated 14 seconds ago

Overcast
Overcast
9.9 °F
Feels Like 10 °F
N
1.9
Wind Variable Wind from SSW
Gusts 4.3 mph

Today
High -- | Low -- °F
--% Chance of Precip.
Yesterday
High -- | Low -- °F
Precip. -- in
Pressure 30.52 in
Visibility 10.0 miles
Clouds Overcast 4600 ft
Windchill 10 °F
Dew Point 9 °F
Humidity 98%
Rainfall Not available.
Snow Depth Not available.
8:08 AM 4:46 PM
First Quarter, 52% visible
METAR KMSO 071253Z 11013KT 10SM OVC046 M11/M18 A3034 RMK AO2 SLP333 T11111183
Pressure 30.52 in
Visibility 10.0 miles
Clouds Overcast 4600 ft
Windchill 10 °F
Dew Point 9 °F
Humidity 98%
Rainfall Not available.
Snow Depth Not available.
8:08 AM 4:46 PM
First Quarter, 52% visible
METAR KMSO 071253Z 11013KT 10SM OVC046 M11/M18 A3034 RMK AO2 SLP333 T11111183

10-Day Weather Forecast

Almanac

Astronomy

Dec. 07, 2016 Rise Set
Actual Time
Civil Twilight
Nautical Twilight
Astronomical Twilight
Moon
Length of Visible Light
Length of Day
Tomorrow will be .
, % of the Moon is Illuminated

Today's Extremes

State Highs State Lows

Community

WunderPhotos

Upload Photos

1,956,112 photos uploaded!

WunderBlog® & News

Nearby

Air Quality

  Air Quality AQ Index Pollutant
Not available.

Snow Depth

Station Depth Elevation

Earthquake Activity

City Distance Mag. Time & Date
Minimum magnitude displayed is 2.5.

Coastal Water Temperatures

Place Temperature

Stations

Nearby Weather Stations

Station Location Temp. Windchill Dew Point Humidity Wind Precip. Elev Updated Type
                   

Watches & Warnings

Winter Storm Watch
Issued: 1:38 PM PST Dec. 6, 2016 – National Weather Service

... Winter Storm Watch in effect from Thursday afternoon through
Saturday morning...

* impacts/timing: an impressive push of relatively warm, moist air
will move into the northern rockies late Thursday and interact
with an already very cold environment to produce widespread
snow that will last through at least Saturday morning. Periods
of heavy snow are possible, especially early Friday morning
through late Friday night.

* Snow accumulations: between Thursday evening and Saturday
morning 12 to 24 inches are possible throughout the higher
terrain including over lookout, Lolo and lost trail passes.
Valley locations within the watch area should prepare for 6 to
12 inches with locally higher amounts possible in some
locations. Snowfall may be very heavy at times with rates
exceeding 2 inches per hour and may result in significantly
reduced visibility.

* Cities and frequent travel routes impacted include: Elk River,
ID-11 Pierce to Headquarters, Pierce, Dixie, Elk City, US-12
Lowell to Lolo Pass, Evaro hill, Mt-200 Thompson Falls to
plains, Mt-200 Trout Creek to Heron, I-90 Lookout Pass to
Haugan, US-93 Sula to Lost Trail Pass, and Lolo Pass